Time;durP1;ratioP1;P1;durP2;ratioP2;P2;SDS_P1;SDS_P2;PMS_P1;PMS_P2;Temp;Humidity;BMP_temperature;BMP_pressure;BME280_temperature;BME280_humidity;BME280_pressure;Samples;Min_cycle;Max_cycle;Signal;HPM_P1;HPM_P2
2022/08/11 00:01:36;;;;;;;19.15;10.40;;;16.10;99.90;;;;;;5052607;28;20041;-27
2022/08/11 00:04:04;;;;;;;14.73;11.02;;;16.10;99.90;;;;;;5053370;28;20194;-27
2022/08/11 00:06:35;;;;;;;19.08;12.75;;;16.10;99.90;;;;;;5053669;28;20063;-27
2022/08/11 00:09:05;;;;;;;15.73;12.18;;;16.00;99.90;;;;;;5052742;28;20522;-27
2022/08/11 00:11:37;;;;;;;15.32;11.57;;;16.00;99.90;;;;;;5052923;28;20410;-26
2022/08/11 00:14:11;;;;;;;19.45;11.82;;;16.00;99.90;;;;;;5054823;28;20052;-26
2022/08/11 00:16:38;;;;;;;15.10;11.82;;;15.90;99.90;;;;;;5053048;28;20061;-27
2022/08/11 00:19:04;;;;;;;15.63;11.20;;;15.90;99.90;;;;;;5054152;28;20053;-27
2022/08/11 00:21:31;;;;;;;14.77;11.73;;;15.80;99.90;;;;;;5053055;28;20045;-27
2022/08/11 00:24:00;;;;;;;15.95;11.93;;;15.80;99.90;;;;;;5068995;28;20495;-27
2022/08/11 00:26:27;;;;;;;14.57;10.82;;;15.80;99.90;;;;;;5053287;28;20053;-27
2022/08/11 00:28:53;;;;;;;14.05;10.43;;;15.80;99.90;;;;;;5051324;28;20051;-26
2022/08/11 00:31:30;;;;;;;15.50;11.18;;;15.80;99.90;;;;;;5053551;28;20494;-26
2022/08/11 00:33:59;;;;;;;15.70;11.02;;;15.80;99.90;;;;;;5051412;28;20107;-27
2022/08/11 00:36:50;;;;;;;15.68;10.73;;;15.80;99.90;;;;;;5051894;28;20502;-26
2022/08/11 00:39:19;;;;;;;17.23;10.00;;;15.80;99.90;;;;;;5053916;28;20092;-26
2022/08/11 00:42:04;;;;;;;17.10;10.68;;;15.80;99.90;;;;;;5051870;28;20053;-27
2022/08/11 00:44:38;;;;;;;19.35;10.80;;;15.70;99.90;;;;;;5052084;28;20497;-27
2022/08/11 00:47:17;;;;;;;14.65;11.15;;;15.70;99.90;;;;;;5052582;28;20053;-27
2022/08/11 00:50:16;;;;;;;15.50;11.15;;;15.70;99.90;;;;;;5053757;28;20047;-26
2022/08/11 00:53:07;;;;;;;12.85;10.35;;;15.70;1.00;;;;;;5053439;28;20048;-28
2022/08/11 00:56:07;;;;;;;17.48;10.90;;;15.60;1.00;;;;;;5038538;28;20051;-27
2022/08/11 00:59:00;;;;;;;15.07;11.23;;;15.70;1.00;;;;;;5037188;28;20045;-26
2022/08/11 01:01:51;;;;;;;13.05;10.45;;;15.60;1.00;;;;;;5052926;28;20060;-27
2022/08/11 01:04:42;;;;;;;14.77;10.38;;;15.60;1.00;;;;;;5050742;28;20037;-26
2022/08/11 01:07:32;;;;;;;13.25;9.95;;;15.60;99.90;;;;;;5050596;28;20053;-27
2022/08/11 01:10:29;;;;;;;16.17;11.02;;;15.60;99.90;;;;;;5052602;28;20049;-28
2022/08/11 01:13:46;;;;;;;16.20;10.18;;;15.50;99.90;;;;;;5050850;28;20041;-26
2022/08/11 01:16:33;;;;;;;14.90;10.60;;;15.50;99.90;;;;;;5042882;28;20076;-26
2022/08/11 01:19:14;;;;;;;15.10;9.65;;;15.40;1.00;;;;;;5034306;28;20076;-27
2022/08/11 01:22:04;;;;;;;16.77;9.88;;;15.40;99.90;;;;;;5053358;28;20049;-26
2022/08/11 01:25:17;;;;;;;15.00;10.10;;;15.40;99.90;;;;;;5053420;28;20048;-27
2022/08/11 01:28:13;;;;;;;12.98;10.10;;;15.30;1.00;;;;;;5052622;28;20051;-26
2022/08/11 01:31:20;;;;;;;15.45;11.45;;;15.30;99.90;;;;;;5052364;28;20464;-27
2022/08/11 01:34:23;;;;;;;15.20;10.13;;;15.20;1.00;;;;;;5048501;28;20045;-26
2022/08/11 01:36:55;;;;;;;17.05;10.65;;;15.20;1.00;;;;;;5057245;28;20059;-26
2022/08/11 01:39:43;;;;;;;14.35;11.20;;;15.10;99.90;;;;;;5056309;28;20171;-27
2022/08/11 01:45:29;;;;;;;17.23;12.70;;;15.00;1.00;;;;;;5055767;28;20102;-26
2022/08/11 01:48:19;;;;;;;17.08;10.85;;;15.00;99.90;;;;;;5056446;28;20052;-26
2022/08/11 01:51:04;;;;;;;21.25;13.18;;;14.90;1.00;;;;;;5055923;28;20116;-26
2022/08/11 01:53:37;;;;;;;15.73;12.32;;;14.80;99.90;;;;;;5055368;28;20041;-26
2022/08/11 01:56:22;;;;;;;16.08;11.45;;;14.80;99.90;;;;;;5053733;28;20049;-26
2022/08/11 01:59:03;;;;;;;16.30;10.88;;;14.80;1.00;;;;;;5055705;28;20052;-28
2022/08/11 02:01:34;;;;;;;18.30;12.18;;;14.80;1.00;;;;;;5055326;28;20133;-26
2022/08/11 02:04:24;;;;;;;14.73;11.07;;;14.70;1.00;;;;;;5053950;28;20053;-27
2022/08/11 02:07:09;;;;;;;23.58;13.10;;;14.70;1.00;;;;;;5054605;28;20087;-26
2022/08/11 02:11:29;;;;;;;16.95;12.38;;;14.60;1.00;;;;;;5056974;28;20084;-27
2022/08/11 02:13:14;;;;;;;17.58;12.77;;;14.60;1.00;;;;;;5055529;28;20053;-26
2022/08/11 02:15:46;;;;;;;20.20;12.70;;;14.60;1.00;;;;;;5056428;28;20049;-26
2022/08/11 02:23:38;;;;;;;14.32;11.27;;;14.60;1.00;;;;;;5055350;28;20060;-26
2022/08/11 02:24:29;;;;;;;20.23;12.18;;;14.50;1.00;;;;;;5055752;28;20087;-26
2022/08/11 02:27:13;;;;;;;20.77;11.77;;;14.50;1.00;;;;;;5056383;28;20056;-26
2022/08/11 02:29:46;;;;;;;18.73;11.85;;;14.50;1.00;;;;;;5055690;28;20463;-26
2022/08/11 02:35:27;;;;;;;19.08;13.30;;;14.40;1.00;;;;;;5044207;28;20049;-26
2022/08/11 02:38:45;;;;;;;12.55;9.85;;;14.40;1.00;;;;;;5056358;28;20178;-26
2022/08/11 02:44:54;;;;;;;7.95;5.63;;;13.90;1.00;;;;;;5054857;28;20713;-26
2022/08/11 02:49:52;;;;;;;6.07;4.35;;;13.60;99.90;;;;;;5054981;28;20049;-26
2022/08/11 02:50:34;;;;;;;6.88;4.30;;;13.30;99.90;;;;;;5055352;28;20049;-26
2022/08/11 02:53:28;;;;;;;7.88;5.20;;;13.00;99.90;;;;;;5055295;28;20041;-26
2022/08/11 02:56:07;;;;;;;23.90;6.90;;;12.80;99.90;;;;;;5035474;28;20491;-26
2022/08/11 02:59:48;;;;;;;6.32;5.07;;;12.60;99.90;;;;;;5041798;28;20059;-26
2022/08/11 03:02:06;;;;;;;7.50;6.22;;;12.60;99.90;;;;;;5053888;28;20503;-26
2022/08/11 03:05:01;;;;;;;8.38;6.90;;;12.50;99.90;;;;;;5050689;28;20461;-27
2022/08/11 03:08:07;;;;;;;7.53;6.55;;;12.50;99.90;;;;;;5001706;28;20188;-26
2022/08/11 03:17:20;;;;;;;864.58;29.55;;;12.40;1.00;;;;;;5053830;28;20126;-26
2022/08/11 03:20:13;;;;;;;137.00;10.83;;;12.20;1.00;;;;;;5054878;28;20132;-26
2022/08/11 03:22:56;;;;;;;5.20;4.60;;;12.00;99.90;;;;;;5055384;28;20049;-26
2022/08/11 03:25:30;;;;;;;8.32;5.90;;;11.80;99.90;;;;;;5040164;28;20037;-26
2022/08/11 03:28:32;;;;;;;16.90;10.27;;;11.80;99.90;;;;;;5054983;28;20049;-26
2022/08/11 03:31:01;;;;;;;12.00;8.18;;;11.80;1.00;;;;;;5055499;28;20041;-26
2022/08/11 03:36:46;;;;;;;29.58;17.48;;;12.10;1.00;;;;;;5053279;28;20120;-26
2022/08/11 03:39:20;;;;;;;32.17;21.02;;;12.30;1.00;;;;;;5037074;28;20147;-26
2022/08/11 03:41:56;;;;;;;35.25;21.60;;;12.50;1.00;;;;;;5054232;28;20037;-26
2022/08/11 03:44:48;;;;;;;37.95;23.45;;;12.80;70.30;;;;;;5054290;28;20110;-25
2022/08/11 03:47:37;;;;;;;38.28;23.40;;;13.10;99.90;;;;;;5053738;28;20127;-26
2022/08/11 03:50:28;;;;;;;37.92;21.80;;;13.20;99.90;;;;;;5053706;28;20056;-26
2022/08/11 03:53:28;;;;;;;37.63;23.67;;;13.50;99.90;;;;;;5053709;28;20522;-26
2022/08/11 03:56:12;;;;;;;57.63;30.60;;;13.60;99.90;;;;;;5054464;28;20044;-27
2022/08/11 03:59:05;;;;;;;43.47;24.10;;;13.60;99.90;;;;;;5053474;28;20487;-26
2022/08/11 04:02:09;;;;;;;40.78;23.63;;;13.70;99.70;;;;;;5053545;28;20080;-26
2022/08/11 04:05:06;;;;;;;41.50;24.00;;;13.70;92.70;;;;;;5033350;28;20042;-26
2022/08/11 04:07:56;;;;;;;42.60;21.88;;;13.60;56.30;;;;;;5045747;28;20045;-26
2022/08/11 04:10:35;;;;;;;52.70;19.38;;;13.50;40.40;;;;;;5053528;28;20076;-26
2022/08/11 04:13:11;;;;;;;752.92;38.78;;;13.50;1.00;;;;;;5053607;28;20048;-26
2022/08/11 04:15:59;;;;;;;324.35;30.63;;;13.20;1.00;;;;;;5053551;28;20502;-26
2022/08/11 04:18:25;;;;;;;909.38;52.88;;;13.20;41.10;;;;;;5053455;28;20111;-25
2022/08/11 04:21:20;;;;;;;909.80;49.35;;;13.10;99.90;;;;;;5053020;28;20048;-26
2022/08/11 04:24:43;;;;;;;409.02;23.25;;;13.10;99.90;;;;;;5053596;28;20490;-26
2022/08/11 04:27:41;;;;;;;377.73;18.38;;;13.00;99.90;;;;;;5031850;28;20053;-25
2022/08/11 04:30:09;;;;;;;21.60;7.75;;;12.70;88.60;;;;;;5030052;28;20076;-26
2022/08/11 04:33:30;;;;;;;13.63;8.63;;;12.50;74.50;;;;;;5035006;28;20070;-26
2022/08/11 04:37:31;;;;;;;23.52;12.75;;;12.40;99.90;;;;;;4995132;28;20137;-25
2022/08/11 04:39:23;;;;;;;21.20;11.68;;;12.40;99.90;;;;;;5049445;28;20499;-25
2022/08/11 04:45:51;;;;;;;22.30;14.43;;;12.70;99.90;;;;;;5052557;28;20052;-25
2022/08/11 05:07:33;;;;;;;73.25;39.88;;;14.70;99.90;;;;;;5052524;28;20053;-25
2022/08/11 05:10:09;;;;;;;65.50;34.83;;;14.90;99.90;;;;;;5035318;28;20063;-25
2022/08/11 05:12:54;;;;;;;68.38;35.17;;;15.10;99.90;;;;;;5052351;28;20040;-25
2022/08/11 05:35:44;;;;;;;42.47;24.45;;;15.80;99.90;;;;;;5052203;28;20128;-27
2022/08/11 05:57:59;;;;;;;20.58;14.77;;;16.40;99.90;;;;;;5052381;28;20067;-26
2022/08/11 06:00:25;;;;;;;17.55;14.80;;;16.50;99.90;;;;;;5051312;28;20045;-26
2022/08/11 06:02:55;;;;;;;20.80;14.50;;;16.50;99.90;;;;;;5052360;28;20053;-26
2022/08/11 06:05:21;;;;;;;17.05;12.60;;;16.70;99.90;;;;;;5052070;28;20095;-26
2022/08/11 06:07:49;;;;;;;14.65;11.73;;;16.80;99.90;;;;;;5067997;28;20048;-26
2022/08/11 06:10:37;;;;;;;14.57;11.88;;;17.00;99.90;;;;;;5052560;28;20084;-26
2022/08/11 06:13:06;;;;;;;18.60;10.82;;;17.10;99.90;;;;;;5052329;28;20123;-26
2022/08/11 06:15:42;;;;;;;11.70;10.43;;;17.30;99.90;;;;;;5051645;28;20045;-26
2022/08/11 06:18:13;;;;;;;12.60;9.52;;;17.40;99.90;;;;;;5055728;28;20049;-26
2022/08/11 06:20:53;;;;;;;11.30;8.77;;;17.50;99.90;;;;;;5057378;28;20057;-26
2022/08/11 06:23:23;;;;;;;14.77;8.68;;;17.80;99.90;;;;;;5054323;28;20045;-26
2022/08/11 06:25:51;;;;;;;8.10;7.30;;;17.80;99.90;;;;;;5055325;28;20087;-26
2022/08/11 06:28:19;;;;;;;13.23;7.72;;;18.00;99.90;;;;;;5056084;28;20047;-26
2022/08/11 06:30:47;;;;;;;10.43;7.45;;;18.00;99.90;;;;;;5054313;28;20483;-26
2022/08/11 06:33:43;;;;;;;11.60;6.55;;;18.20;99.90;;;;;;5055542;28;20052;-26
2022/08/11 06:36:15;;;;;;;12.55;6.20;;;18.30;99.90;;;;;;5047833;28;20061;-26
2022/08/11 06:39:05;;;;;;;10.40;6.10;;;18.40;99.90;;;;;;5066559;28;20402;-26
2022/08/11 06:41:44;;;;;;;11.32;7.43;;;18.50;99.90;;;;;;5037050;28;20052;-26
2022/08/11 06:44:12;;;;;;;7.38;6.40;;;18.60;99.90;;;;;;5035537;28;20046;-26
2022/08/11 06:46:46;;;;;;;25.92;6.10;;;18.70;18.10;;;;;;5036013;28;20042;-26
2022/08/11 06:52:05;;;;;;;8.88;5.55;;;18.90;99.90;;;;;;5065112;28;20495;-26
2022/08/11 06:54:35;;;;;;;7.43;6.05;;;19.00;99.90;;;;;;5041466;28;20055;-26
2022/08/11 07:02:45;;;;;;;7.22;5.60;;;19.30;99.90;;;;;;5055252;28;20057;-28
2022/08/11 07:05:23;;;;;;;7.20;5.60;;;19.40;99.90;;;;;;5055706;28;20051;-26
2022/08/11 07:16:45;;;;;;;10.88;6.20;;;19.80;1.00;;;;;;5055141;28;20556;-26
2022/08/11 07:30:41;;;;;;;6.28;5.00;;;20.50;99.90;;;;;;5055512;28;20118;-26
2022/08/11 07:33:09;;;;;;;5.57;4.30;;;20.60;99.90;;;;;;5054121;28;20372;-26
2022/08/11 07:35:52;;;;;;;5.15;4.63;;;20.70;53.60;;;;;;5055012;28;20053;-26
2022/08/11 07:38:20;;;;;;;;;;;20.90;1.00;;;;;;5056088;28;20127;-26
2022/08/11 07:40:46;;;;;;;10.00;4.03;;;21.00;1.00;;;;;;5054864;28;19921;-26
2022/08/11 07:43:13;;;;;;;9.63;5.32;;;21.10;1.00;;;;;;5069489;28;20048;-27
2022/08/11 07:54:07;;;;;;;7.40;3.20;;;21.60;99.90;;;;;;5054014;28;20056;-26
2022/08/11 07:56:35;;;;;;;6.47;4.28;;;21.70;99.90;;;;;;5052824;28;20454;-26
2022/08/11 08:18:25;;;;;;;6.32;2.80;;;22.70;99.90;;;;;;5054101;28;20056;-26
2022/08/11 08:20:53;;;;;;;6.38;2.90;;;22.80;99.90;;;;;;5054213;28;20406;-26
2022/08/11 08:23:33;;;;;;;5.55;2.95;;;22.90;99.90;;;;;;5054160;28;20044;-26
2022/08/11 08:26:57;;;;;;;7.65;2.47;;;23.00;99.90;;;;;;5054769;28;20087;-26
2022/08/11 08:28:51;;;;;;;3.67;2.30;;;23.20;99.90;;;;;;5068795;28;20053;-27
2022/08/11 08:31:18;;;;;;;4.28;1.63;;;23.30;93.00;;;;;;5053398;28;20049;-26
2022/08/11 08:33:44;;;;;;;8.63;2.20;;;23.40;1.00;;;;;;5054090;28;20045;-28
2022/08/11 08:36:11;;;;;;;9.07;2.47;;;23.50;1.00;;;;;;5054720;28;20052;-27
2022/08/11 08:38:48;;;;;;;7.65;1.60;;;23.60;1.00;;;;;;5052735;28;20117;-26
2022/08/11 08:41:19;;;;;;;4.43;1.77;;;23.80;1.00;;;;;;5052924;28;20040;-26
2022/08/11 08:43:50;;;;;;;5.78;1.33;;;23.90;1.00;;;;;;5054204;28;20048;-26
2022/08/11 08:46:21;;;;;;;6.28;1.40;;;24.00;99.90;;;;;;5054413;28;20059;-26
2022/08/11 08:48:48;;;;;;;3.75;1.40;;;24.10;99.90;;;;;;5052249;28;20041;-26
2022/08/11 08:51:33;;;;;;;3.67;1.73;;;24.30;99.90;;;;;;5053616;28;20048;-26
2022/08/11 08:54:06;;;;;;;5.88;1.50;;;24.40;99.90;;;;;;5053698;28;20053;-26
2022/08/11 08:56:34;;;;;;;4.07;1.67;;;24.60;99.90;;;;;;5054585;28;20040;-27
2022/08/11 08:59:04;;;;;;;8.95;1.52;;;24.70;99.90;;;;;;5050614;28;20130;-27
2022/08/11 09:01:56;;;;;;;6.65;3.25;;;24.90;91.70;;;;;;5051609;28;20049;-27
2022/08/11 09:04:23;;;;;;;6.68;2.03;;;25.10;1.00;;;;;;5054331;28;20067;-27
2022/08/11 09:06:50;;;;;;;5.22;1.15;;;25.30;1.00;;;;;;5053540;28;20498;-27
2022/08/11 09:09:16;;;;;;;6.05;1.15;;;25.90;1.00;;;;;;5053537;28;20045;-27
2022/08/11 09:11:49;;;;;;;5.13;0.93;;;27.10;99.90;;;;;;5053487;28;20087;-26
2022/08/11 09:14:24;;;;;;;1.52;1.00;;;28.10;99.90;;;;;;5053330;28;20052;-28
2022/08/11 09:16:51;;;;;;;13.02;1.52;;;29.00;99.90;;;;;;5053044;28;20069;-27
2022/08/11 09:19:19;;;;;;;4.68;1.45;;;29.50;99.90;;;;;;5052695;28;20491;-27
2022/08/11 09:26:58;;;;;;;3.95;1.42;;;29.90;99.90;;;;;;5053408;28;20051;-27
2022/08/11 09:27:22;;;;;;;4.55;1.38;;;30.90;99.90;;;;;;5038328;28;20057;-27
2022/08/11 09:29:49;;;;;;;3.67;1.20;;;31.40;99.90;;;;;;5050690;28;20045;-28
2022/08/11 09:32:20;;;;;;;6.60;1.35;;;31.60;99.90;;;;;;5052100;28;20045;-28
2022/08/11 09:34:46;;;;;;;5.18;1.02;;;31.80;99.90;;;;;;5029828;28;20047;-27
2022/08/11 09:45:30;;;;;;;6.35;1.10;;;32.50;99.90;;;;;;5053300;28;20053;-28
2022/08/11 09:47:57;;;;;;;2.95;1.35;;;32.60;99.90;;;;;;5053174;28;20045;-28
2022/08/11 09:50:24;;;;;;;4.18;1.00;;;32.80;99.90;;;;;;5053165;28;20049;-27
2022/08/11 09:52:50;;;;;;;4.60;1.30;;;32.80;99.90;;;;;;5054473;28;20141;-27
2022/08/11 09:55:16;;;;;;;4.63;0.90;;;32.90;99.90;;;;;;5055769;28;20534;-28
2022/08/11 10:00:41;;;;;;;5.47;1.38;;;33.10;99.90;;;;;;5054300;28;20071;-28
2022/08/11 10:03:16;;;;;;;2.80;1.13;;;33.10;99.90;;;;;;5056135;28;20045;-28
2022/08/11 10:08:37;;;;;;;3.55;1.00;;;33.00;99.90;;;;;;5056082;28;20484;-27
2022/08/11 10:11:08;;;;;;;3.00;1.00;;;32.90;99.90;;;;;;5054195;28;20049;-28
2022/08/11 10:15:32;;;;;;;1.90;1.15;;;33.30;99.90;;;;;;5056439;28;20577;-28
2022/08/11 10:16:28;;;;;;;2.40;1.10;;;33.70;99.90;;;;;;5054631;28;20406;-28
2022/08/11 10:18:57;;;;;;;3.47;1.00;;;34.20;99.90;;;;;;5055856;28;20056;-28
2022/08/11 10:21:27;;;;;;;3.05;0.98;;;34.20;99.90;;;;;;5057027;28;20044;-27
2022/08/11 10:26:53;;;;;;;3.72;0.95;;;34.70;99.90;;;;;;5041495;28;20566;-27
2022/08/11 10:34:53;;;;;;;4.05;1.05;;;34.60;99.90;;;;;;5055582;28;20057;-29
2022/08/11 10:37:22;;;;;;;4.47;1.35;;;34.90;99.90;;;;;;5056757;28;20080;-28
2022/08/11 10:39:48;;;;;;;3.58;1.15;;;34.90;99.90;;;;;;5056170;28;20091;-28
2022/08/11 10:45:02;;;;;;;2.33;0.95;;;35.10;99.90;;;;;;5055044;28;20126;-27
2022/08/11 10:47:34;;;;;;;2.35;0.80;;;35.40;99.90;;;;;;5055979;28;20053;-28
2022/08/11 11:01:16;;;;;;;5.47;1.10;;;35.30;99.90;;;;;;5053973;28;20044;-28
2022/08/11 11:03:43;;;;;;;5.85;1.23;;;35.10;99.90;;;;;;5052004;28;20138;-28
2022/08/11 11:06:27;;;;;;;5.97;0.80;;;35.50;99.90;;;;;;5047440;28;20045;-28
2022/08/11 11:09:18;;;;;;;2.47;1.05;;;35.70;99.90;;;;;;5052219;28;20041;-28
2022/08/11 11:20:34;;;;;;;3.53;1.25;;;35.10;1.00;;;;;;5049875;28;20056;-28
2022/08/11 11:23:22;;;;;;;3.28;2.25;;;35.00;1.00;;;;;;5053765;28;20071;-28
2022/08/11 11:26:05;;;;;;;6.43;1.27;;;35.30;1.00;;;;;;5051058;28;20060;-28
2022/08/11 11:29:04;;;;;;;2.03;1.13;;;35.80;1.00;;;;;;5046145;28;20049;-29
2022/08/11 11:31:56;;;;;;;3.40;1.20;;;35.80;1.00;;;;;;5051039;28;20072;-28
2022/08/11 11:34:30;;;;;;;1.48;0.80;;;36.10;1.00;;;;;;5035136;28;20056;-28
2022/08/11 11:36:59;;;;;;;4.82;0.85;;;36.30;1.00;;;;;;5046745;28;20053;-28
2022/08/11 11:39:27;;;;;;;3.75;1.10;;;36.40;1.00;;;;;;5040085;28;20480;-28
2022/08/11 11:41:56;;;;;;;3.00;0.90;;;36.60;1.00;;;;;;5063483;28;20045;-28
2022/08/11 11:44:24;;;;;;;2.22;1.10;;;36.70;1.00;;;;;;5051142;28;20120;-28
2022/08/11 11:46:50;;;;;;;1.65;0.70;;;36.60;1.00;;;;;;5054758;28;20056;-28
2022/08/11 11:49:18;;;;;;;3.67;1.00;;;36.70;1.00;;;;;;5043961;28;20495;-28
2022/08/11 11:51:51;;;;;;;3.38;0.80;;;37.00;1.00;;;;;;5055375;28;20045;-28
2022/08/11 11:54:22;;;;;;;1.73;0.88;;;37.10;1.00;;;;;;5052924;28;20045;-28
2022/08/11 11:56:52;;;;;;;5.32;1.58;;;36.90;1.00;;;;;;5051713;28;20437;-28
2022/08/11 12:02:09;;;;;;;2.28;0.80;;;36.30;1.00;;;;;;5046816;28;20048;-28
2022/08/11 12:04:46;;;;;;;2.72;0.90;;;36.40;1.00;;;;;;5043146;28;20484;-29
2022/08/11 12:09:58;;;;;;;3.53;0.77;;;36.70;1.00;;;;;;5047076;28;20057;-29
2022/08/11 12:15:10;;;;;;;1.40;0.90;;;36.50;99.90;;;;;;5048784;28;20045;-28
2022/08/11 12:17:37;;;;;;;1.48;0.70;;;36.10;99.90;;;;;;5042777;28;20076;-29
2022/08/11 12:20:04;;;;;;;2.45;0.95;;;35.80;99.90;;;;;;5056386;28;20048;-28
2022/08/11 12:28:01;;;;;;;2.03;1.20;;;35.70;99.90;;;;;;5054171;28;20099;-28
2022/08/11 12:30:27;;;;;;;2.55;1.55;;;35.70;99.90;;;;;;5054122;28;20053;-28
2022/08/11 12:32:54;;;;;;;2.05;1.33;;;35.80;99.90;;;;;;5048987;28;20128;-28
2022/08/11 12:35:21;;;;;;;1.52;0.95;;;36.00;99.90;;;;;;5051720;28;20079;-30
2022/08/11 12:37:59;;;;;;;7.78;1.00;;;36.00;99.90;;;;;;5039448;28;20372;-28
2022/08/11 12:46:02;;;;;;;3.53;0.77;;;35.20;99.90;;;;;;5048314;28;20052;-28
2022/08/11 12:54:16;;;;;;;2.40;1.00;;;35.00;99.90;;;;;;5043276;28;20040;-28
2022/08/11 13:05:10;;;;;;;3.22;0.95;;;35.60;99.90;;;;;;5051697;28;20041;-29
2022/08/11 13:07:39;;;;;;;3.97;0.80;;;35.50;99.90;;;;;;5051827;28;20037;-28
2022/08/11 13:10:08;;;;;;;2.70;0.75;;;35.20;99.90;;;;;;5052358;28;20175;-29
2022/08/11 13:12:47;;;;;;;4.63;1.00;;;35.50;99.90;;;;;;5050424;28;20041;-28
2022/08/11 13:15:16;;;;;;;4.03;0.82;;;35.80;99.90;;;;;;5051596;28;20041;-28
2022/08/11 13:17:43;;;;;;;6.45;2.75;;;35.50;99.90;;;;;;5055187;28;20057;-28
2022/08/11 13:20:12;;;;;;;2.08;0.90;;;35.60;1.00;;;;;;5073378;28;20485;-28
2022/08/11 13:22:44;;;;;;;4.70;0.85;;;35.80;99.90;;;;;;5065166;28;20041;-29
2022/08/11 13:25:12;;;;;;;2.47;0.70;;;35.70;99.90;;;;;;5036701;28;20052;-29
2022/08/11 13:27:39;;;;;;;1.45;0.55;;;35.80;99.90;;;;;;5045457;28;20511;-28
2022/08/11 13:32:51;;;;;;;3.03;0.90;;;35.60;1.00;;;;;;5048596;28;20078;-29
2022/08/11 13:35:18;;;;;;;1.27;0.60;;;35.40;1.00;;;;;;5069967;28;20045;-28
2022/08/11 13:37:46;;;;;;;3.45;0.82;;;35.30;1.00;;;;;;5052551;28;20123;-29
2022/08/11 13:40:15;;;;;;;1.83;0.80;;;35.30;1.00;;;;;;5048644;28;20045;-30
2022/08/11 13:42:42;;;;;;;2.03;0.70;;;35.10;1.00;;;;;;5054086;28;20053;-28
2022/08/11 13:45:09;;;;;;;3.38;0.88;;;34.80;1.00;;;;;;5057027;28;20049;-27
2022/08/11 13:47:37;;;;;;;4.15;0.88;;;34.50;1.00;;;;;;5055769;28;20077;-28
2022/08/11 13:50:08;;;;;;;4.00;0.80;;;34.40;1.00;;;;;;5057069;28;20072;-28
2022/08/11 13:52:38;;;;;;;6.43;0.80;;;34.30;1.00;;;;;;5057022;28;20044;-28
2022/08/11 13:55:09;;;;;;;2.17;0.90;;;34.20;1.00;;;;;;5055771;28;20087;-28
2022/08/11 13:57:36;;;;;;;5.18;0.90;;;34.10;1.00;;;;;;5056312;28;20071;-28
2022/08/11 14:00:10;;;;;;;2.00;0.70;;;34.10;1.00;;;;;;5053889;28;20478;-28
2022/08/11 14:02:44;;;;;;;3.65;0.70;;;34.10;1.00;;;;;;5056393;28;20041;-29
2022/08/11 14:05:21;;;;;;;4.22;0.63;;;34.10;1.00;;;;;;5057461;28;20049;-28
2022/08/11 14:07:51;;;;;;;1.30;0.60;;;34.30;1.00;;;;;;5054316;28;20047;-29
2022/08/11 14:10:20;;;;;;;1.58;0.88;;;34.40;1.00;;;;;;5053587;28;20063;-28
2022/08/11 14:15:46;;;;;;;1.60;0.75;;;35.00;1.00;;;;;;5055975;28;20403;-28
2022/08/11 14:18:15;;;;;;;4.13;0.60;;;35.20;1.00;;;;;;5052416;28;20053;-29
2022/08/11 14:23:34;;;;;;;4.15;0.90;;;35.50;1.00;;;;;;5050071;28;20476;-29
2022/08/11 14:28:44;;;;;;;3.08;0.70;;;35.50;99.90;;;;;;5041305;28;20055;-28
2022/08/11 14:31:14;;;;;;;2.97;1.33;;;35.60;99.90;;;;;;5049902;28;20037;-28
2022/08/11 14:33:42;;;;;;;3.92;0.70;;;35.50;99.90;;;;;;5044126;28;20465;-29
2022/08/11 14:36:10;;;;;;;5.43;1.02;;;35.50;99.90;;;;;;5069486;28;20045;-28
2022/08/11 14:38:38;;;;;;;6.28;1.20;;;35.20;99.90;;;;;;5051708;28;20371;-29
2022/08/11 14:49:21;;;;;;;2.72;0.88;;;34.00;99.90;;;;;;5055360;28;20087;-28
2022/08/11 14:51:48;;;;;;;3.55;1.05;;;33.70;99.90;;;;;;5039013;28;20437;-29
2022/08/11 14:57:02;;;;;;;1.83;1.00;;;34.00;99.90;;;;;;5053273;28;20080;-29
2022/08/11 14:59:28;;;;;;;4.50;1.17;;;33.80;99.90;;;;;;5053456;28;20380;-28
2022/08/11 15:04:39;;;;;;;4.78;0.98;;;34.00;99.90;;;;;;5040404;28;20088;-28
2022/08/11 15:07:05;;;;;;;2.85;0.93;;;33.70;99.90;;;;;;5055372;28;20072;-28
2022/08/11 15:09:31;;;;;;;2.75;0.70;;;33.30;99.90;;;;;;5055368;28;20045;-28
2022/08/11 15:12:08;;;;;;;3.38;1.10;;;33.30;99.90;;;;;;5049406;28;20045;-28
2022/08/11 15:17:20;;;;;;;3.28;0.98;;;33.80;99.90;;;;;;5050930;28;20546;-29
2022/08/11 15:25:18;;;;;;;4.68;0.90;;;33.80;99.90;;;;;;5049751;28;20059;-28
2022/08/11 15:38:57;;;;;;;4.35;0.90;;;34.20;99.90;;;;;;5050259;28;20076;-28
2022/08/11 15:47:16;;;;;;;3.33;0.90;;;33.40;99.90;;;;;;5053988;28;20091;-28
2022/08/11 15:49:45;;;;;;;2.53;0.80;;;33.30;99.90;;;;;;5053866;28;20076;-28
2022/08/11 15:52:20;;;;;;;2.17;0.88;;;33.30;99.90;;;;;;5043420;28;20049;-28
2022/08/11 15:54:47;;;;;;;5.47;1.20;;;33.50;99.90;;;;;;5041873;28;20480;-31
2022/08/11 16:05:21;;;;;;;2.03;0.80;;;32.60;99.90;;;;;;5053630;28;20569;-27
2022/08/11 16:07:50;;;;;;;4.80;0.93;;;32.40;99.90;;;;;;5051831;28;20048;-28
2022/08/11 16:10:21;;;;;;;1.88;0.80;;;32.50;99.90;;;;;;5054797;28;20056;-28
2022/08/11 16:16:13;;;;;;;6.57;1.08;;;32.70;99.90;;;;;;5053856;28;20128;-29
2022/08/11 16:18:56;;;;;;;5.22;0.90;;;32.80;99.90;;;;;;5053471;28;20053;-28
2022/08/11 16:21:26;;;;;;;3.53;0.90;;;32.80;99.90;;;;;;5054373;28;20053;-28
2022/08/11 16:23:55;;;;;;;3.15;1.00;;;33.00;99.90;;;;;;5054732;28;20094;-27
2022/08/11 16:26:23;;;;;;;4.03;1.65;;;32.90;99.90;;;;;;5054190;28;20095;-28
2022/08/11 16:28:55;;;;;;;7.75;3.45;;;32.90;99.90;;;;;;5063989;28;20094;-27
2022/08/11 16:31:21;;;;;;;;;;;33.10;99.90;;;;;;5054535;28;20053;-28
2022/08/11 16:33:48;;;;;;;4.10;0.80;;;32.90;99.90;;;;;;5054054;28;19921;-28
2022/08/11 16:39:02;;;;;;;5.45;0.93;;;32.80;99.90;;;;;;5054789;28;20135;-27
2022/08/11 16:47:03;;;;;;;3.08;1.15;;;32.30;99.90;;;;;;5051160;28;20064;-28
2022/08/11 16:49:38;;;;;;;3.00;0.80;;;32.10;99.90;;;;;;5032587;28;20045;-27
2022/08/11 16:52:09;;;;;;;3.63;0.90;;;32.10;99.90;;;;;;5054341;28;20052;-28
2022/08/11 16:54:36;;;;;;;3.17;0.98;;;32.30;99.90;;;;;;5054594;28;20049;-28
2022/08/11 16:59:55;;;;;;;1.20;0.80;;;32.70;99.90;;;;;;5051238;28;20491;-28
2022/08/11 17:13:57;;;;;;;3.97;1.10;;;32.20;99.90;;;;;;5053417;28;20084;-28
2022/08/11 17:16:36;;;;;;;3.08;0.85;;;32.00;99.90;;;;;;5052048;28;20053;-29
2022/08/11 17:19:08;;;;;;;3.67;0.93;;;31.80;99.90;;;;;;5053645;28;20053;-28
2022/08/11 17:24:34;;;;;;;3.25;1.02;;;31.60;99.90;;;;;;5053878;28;20475;-28
2022/08/11 17:27:02;;;;;;;2.72;1.00;;;31.90;99.90;;;;;;5053812;28;20402;-28
2022/08/11 17:29:41;;;;;;;3.97;2.50;;;31.90;99.90;;;;;;5053602;28;20045;-29
2022/08/11 17:37:47;;;;;;;4.70;1.25;;;31.70;99.90;;;;;;5053286;28;20095;-28
2022/08/11 17:40:21;;;;;;;4.05;1.15;;;31.40;99.90;;;;;;5053171;28;20380;-28
2022/08/11 17:48:37;;;;;;;6.90;1.60;;;31.20;99.90;;;;;;5049665;28;20049;-28
2022/08/11 17:51:09;;;;;;;3.30;1.63;;;31.20;99.90;;;;;;5053952;28;20044;-28
2022/08/11 18:03:28;;;;;;;2.03;1.05;;;30.20;99.90;;;;;;5033106;28;20050;-29
2022/08/11 18:04:50;;;;;;;3.05;1.60;;;29.70;99.90;;;;;;5038435;28;20056;-28
